sensor_id;sensor_type;location;lat;lon;timestamp;pressure;altitude;pressure_sealevel;temperature
41940;BMP180;23057;48.554;14.454;2024-03-07T00:01:38;93970.00;;;9.20
41940;BMP180;23057;48.554;14.454;2024-03-07T00:04:09;93960.00;;;9.10
41940;BMP180;23057;48.554;14.454;2024-03-07T00:06:40;93948.00;;;9.00
41940;BMP180;23057;48.554;14.454;2024-03-07T00:09:12;93953.00;;;9.00
41940;BMP180;23057;48.554;14.454;2024-03-07T00:11:43;93959.00;;;8.90
41940;BMP180;23057;48.554;14.454;2024-03-07T00:14:15;93965.00;;;8.80
41940;BMP180;23057;48.554;14.454;2024-03-07T00:16:46;93961.00;;;8.80
41940;BMP180;23057;48.554;14.454;2024-03-07T00:19:17;93967.00;;;8.80
41940;BMP180;23057;48.554;14.454;2024-03-07T00:21:48;93961.00;;;8.80
41940;BMP180;23057;48.554;14.454;2024-03-07T00:24:19;93968.00;;;8.80
41940;BMP180;23057;48.554;14.454;2024-03-07T00:26:51;93958.00;;;8.80
41940;BMP180;23057;48.554;14.454;2024-03-07T00:29:22;93957.00;;;8.80
41940;BMP180;23057;48.554;14.454;2024-03-07T00:31:53;93955.00;;;8.80
41940;BMP180;23057;48.554;14.454;2024-03-07T00:34:24;93954.00;;;8.70
41940;BMP180;23057;48.554;14.454;2024-03-07T00:36:55;93955.00;;;8.70
41940;BMP180;23057;48.554;14.454;2024-03-07T00:39:28;93941.00;;;8.70
41940;BMP180;23057;48.554;14.454;2024-03-07T00:41:59;93946.00;;;8.70
41940;BMP180;23057;48.554;14.454;2024-03-07T00:44:30;93948.00;;;8.70
41940;BMP180;23057;48.554;14.454;2024-03-07T00:47:01;93943.00;;;8.70
41940;BMP180;23057;48.554;14.454;2024-03-07T00:49:33;93949.00;;;8.70
41940;BMP180;23057;48.554;14.454;2024-03-07T00:52:04;93944.00;;;8.60
41940;BMP180;23057;48.554;14.454;2024-03-07T00:54:35;93939.00;;;8.60
41940;BMP180;23057;48.554;14.454;2024-03-07T00:57:06;93935.00;;;8.50
41940;BMP180;23057;48.554;14.454;2024-03-07T00:59:38;93939.00;;;8.50
41940;BMP180;23057;48.554;14.454;2024-03-07T01:02:08;93933.00;;;8.50
41940;BMP180;23057;48.554;14.454;2024-03-07T01:04:39;93933.00;;;8.50
41940;BMP180;23057;48.554;14.454;2024-03-07T01:07:10;93935.00;;;8.50
41940;BMP180;23057;48.554;14.454;2024-03-07T01:09:41;93936.00;;;8.60
41940;BMP180;23057;48.554;14.454;2024-03-07T01:12:12;93942.00;;;8.60
41940;BMP180;23057;48.554;14.454;2024-03-07T01:14:43;93941.00;;;8.60
41940;BMP180;23057;48.554;14.454;2024-03-07T01:17:14;93932.00;;;8.60
41940;BMP180;23057;48.554;14.454;2024-03-07T01:19:44;93916.00;;;8.50
41940;BMP180;23057;48.554;14.454;2024-03-07T01:22:15;93926.00;;;8.40
41940;BMP180;23057;48.554;14.454;2024-03-07T01:24:47;93937.00;;;8.40
41940;BMP180;23057;48.554;14.454;2024-03-07T01:27:18;93928.00;;;8.40
41940;BMP180;23057;48.554;14.454;2024-03-07T01:29:49;93938.00;;;8.40
41940;BMP180;23057;48.554;14.454;2024-03-07T01:32:20;93934.00;;;8.40
41940;BMP180;23057;48.554;14.454;2024-03-07T01:34:51;93938.00;;;8.40
41940;BMP180;23057;48.554;14.454;2024-03-07T01:37:22;93936.00;;;8.50
41940;BMP180;23057;48.554;14.454;2024-03-07T01:39:53;93931.00;;;8.50
41940;BMP180;23057;48.554;14.454;2024-03-07T01:42:24;93920.00;;;8.50
41940;BMP180;23057;48.554;14.454;2024-03-07T01:44:55;93916.00;;;8.60
41940;BMP180;23057;48.554;14.454;2024-03-07T01:47:26;93925.00;;;8.60
41940;BMP180;23057;48.554;14.454;2024-03-07T01:49:57;93919.00;;;8.50
41940;BMP180;23057;48.554;14.454;2024-03-07T01:52:30;93922.00;;;8.50
41940;BMP180;23057;48.554;14.454;2024-03-07T01:55:01;93911.00;;;8.50
41940;BMP180;23057;48.554;14.454;2024-03-07T01:57:33;93909.00;;;8.50
41940;BMP180;23057;48.554;14.454;2024-03-07T02:00:07;93908.00;;;8.40
41940;BMP180;23057;48.554;14.454;2024-03-07T02:02:39;93899.00;;;8.40
41940;BMP180;23057;48.554;14.454;2024-03-07T02:05:11;93905.00;;;8.40
41940;BMP180;23057;48.554;14.454;2024-03-07T02:07:43;93905.00;;;8.30
41940;BMP180;23057;48.554;14.454;2024-03-07T02:10:15;93899.00;;;8.30
41940;BMP180;23057;48.554;14.454;2024-03-07T02:12:46;93906.00;;;8.30
41940;BMP180;23057;48.554;14.454;2024-03-07T02:15:17;93897.00;;;8.30
41940;BMP180;23057;48.554;14.454;2024-03-07T02:17:48;93897.00;;;8.40
41940;BMP180;23057;48.554;14.454;2024-03-07T02:20:19;93908.00;;;8.40
41940;BMP180;23057;48.554;14.454;2024-03-07T02:22:51;93912.00;;;8.30
41940;BMP180;23057;48.554;14.454;2024-03-07T02:25:22;93905.00;;;8.30
41940;BMP180;23057;48.554;14.454;2024-03-07T02:27:53;93908.00;;;8.30
41940;BMP180;23057;48.554;14.454;2024-03-07T02:30:24;93903.00;;;8.30
41940;BMP180;23057;48.554;14.454;2024-03-07T02:32:55;93919.00;;;8.30
41940;BMP180;23057;48.554;14.454;2024-03-07T02:35:27;93905.00;;;8.30
41940;BMP180;23057;48.554;14.454;2024-03-07T02:37:58;93905.00;;;8.30
41940;BMP180;23057;48.554;14.454;2024-03-07T02:40:29;93906.00;;;8.30
41940;BMP180;23057;48.554;14.454;2024-03-07T02:43:01;93905.00;;;8.30
41940;BMP180;23057;48.554;14.454;2024-03-07T02:45:35;93899.00;;;8.30
41940;BMP180;23057;48.554;14.454;2024-03-07T02:48:06;93901.00;;;8.30
41940;BMP180;23057;48.554;14.454;2024-03-07T02:50:39;93895.00;;;8.30
41940;BMP180;23057;48.554;14.454;2024-03-07T02:53:10;93898.00;;;8.30
41940;BMP180;23057;48.554;14.454;2024-03-07T02:55:41;93901.00;;;8.20
41940;BMP180;23057;48.554;14.454;2024-03-07T02:58:12;93897.00;;;8.20
41940;BMP180;23057;48.554;14.454;2024-03-07T03:00:43;93894.00;;;8.10
41940;BMP180;23057;48.554;14.454;2024-03-07T03:03:14;93898.00;;;8.10
41940;BMP180;23057;48.554;14.454;2024-03-07T03:05:44;93898.00;;;8.10
41940;BMP180;23057;48.554;14.454;2024-03-07T03:08:15;93907.00;;;8.10
41940;BMP180;23057;48.554;14.454;2024-03-07T03:10:46;93903.00;;;8.00
41940;BMP180;23057;48.554;14.454;2024-03-07T03:13:17;93899.00;;;7.90
41940;BMP180;23057;48.554;14.454;2024-03-07T03:15:48;93904.00;;;7.90
41940;BMP180;23057;48.554;14.454;2024-03-07T03:18:19;93900.00;;;7.80
41940;BMP180;23057;48.554;14.454;2024-03-07T03:20:51;93896.00;;;7.80
41940;BMP180;23057;48.554;14.454;2024-03-07T03:23:23;93894.00;;;7.80
41940;BMP180;23057;48.554;14.454;2024-03-07T03:25:54;93891.00;;;7.70
41940;BMP180;23057;48.554;14.454;2024-03-07T03:28:25;93889.00;;;7.80
41940;BMP180;23057;48.554;14.454;2024-03-07T03:30:56;93896.00;;;7.80
41940;BMP180;23057;48.554;14.454;2024-03-07T03:33:28;93901.00;;;7.80
41940;BMP180;23057;48.554;14.454;2024-03-07T03:35:58;93898.00;;;7.80
41940;BMP180;23057;48.554;14.454;2024-03-07T03:38:29;93898.00;;;7.70
41940;BMP180;23057;48.554;14.454;2024-03-07T03:41:00;93896.00;;;7.70
41940;BMP180;23057;48.554;14.454;2024-03-07T03:43:31;93897.00;;;7.70
41940;BMP180;23057;48.554;14.454;2024-03-07T03:46:02;93906.00;;;7.70
41940;BMP180;23057;48.554;14.454;2024-03-07T03:48:33;93898.00;;;7.70
41940;BMP180;23057;48.554;14.454;2024-03-07T03:51:06;93903.00;;;7.70
41940;BMP180;23057;48.554;14.454;2024-03-07T03:53:40;93895.00;;;7.70
41940;BMP180;23057;48.554;14.454;2024-03-07T03:56:11;93897.00;;;7.70
41940;BMP180;23057;48.554;14.454;2024-03-07T03:58:42;93896.00;;;7.70
41940;BMP180;23057;48.554;14.454;2024-03-07T04:01:13;93891.00;;;7.60
41940;BMP180;23057;48.554;14.454;2024-03-07T04:03:45;93893.00;;;7.70
41940;BMP180;23057;48.554;14.454;2024-03-07T04:06:19;93897.00;;;7.60
41940;BMP180;23057;48.554;14.454;2024-03-07T04:08:50;93895.00;;;7.60
41940;BMP180;23057;48.554;14.454;2024-03-07T04:11:20;93892.00;;;7.60
41940;BMP180;23057;48.554;14.454;2024-03-07T04:13:51;93888.00;;;7.60
41940;BMP180;23057;48.554;14.454;2024-03-07T04:16:22;93890.00;;;7.60
41940;BMP180;23057;48.554;14.454;2024-03-07T04:18:53;93891.00;;;7.60
41940;BMP180;23057;48.554;14.454;2024-03-07T04:21:24;93890.00;;;7.60
41940;BMP180;23057;48.554;14.454;2024-03-07T04:23:56;93898.00;;;7.60
41940;BMP180;23057;48.554;14.454;2024-03-07T04:26:26;93892.00;;;7.60
41940;BMP180;23057;48.554;14.454;2024-03-07T04:28:57;93887.00;;;7.70
41940;BMP180;23057;48.554;14.454;2024-03-07T04:31:28;93888.00;;;7.70
41940;BMP180;23057;48.554;14.454;2024-03-07T04:33:59;93879.00;;;7.70
41940;BMP180;23057;48.554;14.454;2024-03-07T04:36:30;93894.00;;;7.70
41940;BMP180;23057;48.554;14.454;2024-03-07T04:39:03;93885.00;;;7.70
41940;BMP180;23057;48.554;14.454;2024-03-07T04:41:35;93891.00;;;7.70
41940;BMP180;23057;48.554;14.454;2024-03-07T04:44:06;93894.00;;;7.70
41940;BMP180;23057;48.554;14.454;2024-03-07T04:46:37;93897.00;;;7.70
41940;BMP180;23057;48.554;14.454;2024-03-07T04:49:12;93894.00;;;7.70
41940;BMP180;23057;48.554;14.454;2024-03-07T04:51:44;93891.00;;;7.70
41940;BMP180;23057;48.554;14.454;2024-03-07T04:54:15;93895.00;;;7.70
41940;BMP180;23057;48.554;14.454;2024-03-07T04:56:47;93896.00;;;7.70
41940;BMP180;23057;48.554;14.454;2024-03-07T04:59:20;93895.00;;;7.70
41940;BMP180;23057;48.554;14.454;2024-03-07T05:01:52;93891.00;;;7.70
41940;BMP180;23057;48.554;14.454;2024-03-07T05:04:22;93887.00;;;7.70
41940;BMP180;23057;48.554;14.454;2024-03-07T05:06:54;93893.00;;;7.70
41940;BMP180;23057;48.554;14.454;2024-03-07T05:09:25;93891.00;;;7.60
41940;BMP180;23057;48.554;14.454;2024-03-07T05:11:56;93896.00;;;7.60
41940;BMP180;23057;48.554;14.454;2024-03-07T05:14:28;93893.00;;;7.60
41940;BMP180;23057;48.554;14.454;2024-03-07T05:16:59;93900.00;;;7.50
41940;BMP180;23057;48.554;14.454;2024-03-07T05:19:35;93900.00;;;7.50
41940;BMP180;23057;48.554;14.454;2024-03-07T05:22:07;93894.00;;;7.50
41940;BMP180;23057;48.554;14.454;2024-03-07T05:24:38;93905.00;;;7.50
41940;BMP180;23057;48.554;14.454;2024-03-07T05:27:09;93902.00;;;7.40
41940;BMP180;23057;48.554;14.454;2024-03-07T05:29:43;93906.00;;;7.40
41940;BMP180;23057;48.554;14.454;2024-03-07T05:32:25;93903.00;;;7.40
41940;BMP180;23057;48.554;14.454;2024-03-07T05:34:57;93906.00;;;7.40
41940;BMP180;23057;48.554;14.454;2024-03-07T05:37:28;93913.00;;;7.50
41940;BMP180;23057;48.554;14.454;2024-03-07T05:39:59;93904.00;;;7.40
41940;BMP180;23057;48.554;14.454;2024-03-07T05:42:32;93909.00;;;7.40
41940;BMP180;23057;48.554;14.454;2024-03-07T05:45:03;93913.00;;;7.40
41940;BMP180;23057;48.554;14.454;2024-03-07T05:47:38;93905.00;;;7.40
41940;BMP180;23057;48.554;14.454;2024-03-07T05:50:09;93903.00;;;7.40
41940;BMP180;23057;48.554;14.454;2024-03-07T05:52:41;93903.00;;;7.30
41940;BMP180;23057;48.554;14.454;2024-03-07T05:55:12;93904.00;;;7.40
41940;BMP180;23057;48.554;14.454;2024-03-07T05:57:42;93899.00;;;7.40
41940;BMP180;23057;48.554;14.454;2024-03-07T06:00:15;93909.00;;;7.40
41940;BMP180;23057;48.554;14.454;2024-03-07T06:02:46;93910.00;;;7.30
41940;BMP180;23057;48.554;14.454;2024-03-07T06:05:17;93910.00;;;7.40
41940;BMP180;23057;48.554;14.454;2024-03-07T06:07:49;93912.00;;;7.40
41940;BMP180;23057;48.554;14.454;2024-03-07T06:10:20;93920.00;;;7.40
41940;BMP180;23057;48.554;14.454;2024-03-07T06:12:54;93909.00;;;7.40
41940;BMP180;23057;48.554;14.454;2024-03-07T06:15:25;93911.00;;;7.30
41940;BMP180;23057;48.554;14.454;2024-03-07T06:17:56;93914.00;;;7.30
41940;BMP180;23057;48.554;14.454;2024-03-07T06:20:26;93925.00;;;7.30
41940;BMP180;23057;48.554;14.454;2024-03-07T06:22:57;93931.00;;;7.30
41940;BMP180;23057;48.554;14.454;2024-03-07T06:25:29;93922.00;;;7.30
41940;BMP180;23057;48.554;14.454;2024-03-07T06:28:06;93916.00;;;7.30
41940;BMP180;23057;48.554;14.454;2024-03-07T06:30:44;93929.00;;;7.30
41940;BMP180;23057;48.554;14.454;2024-03-07T06:33:17;93915.00;;;7.30
41940;BMP180;23057;48.554;14.454;2024-03-07T06:35:48;93914.00;;;7.40
41940;BMP180;23057;48.554;14.454;2024-03-07T06:38:19;93916.00;;;7.40
41940;BMP180;23057;48.554;14.454;2024-03-07T06:40:50;93924.00;;;7.40
41940;BMP180;23057;48.554;14.454;2024-03-07T06:43:21;93913.00;;;7.40
41940;BMP180;23057;48.554;14.454;2024-03-07T06:45:53;93919.00;;;7.40
41940;BMP180;23057;48.554;14.454;2024-03-07T06:48:26;93919.00;;;7.40
41940;BMP180;23057;48.554;14.454;2024-03-07T06:51:00;93925.00;;;7.40
41940;BMP180;23057;48.554;14.454;2024-03-07T06:53:33;93911.00;;;7.40
41940;BMP180;23057;48.554;14.454;2024-03-07T06:56:06;93910.00;;;7.50
41940;BMP180;23057;48.554;14.454;2024-03-07T06:58:40;93916.00;;;7.50
41940;BMP180;23057;48.554;14.454;2024-03-07T07:01:13;93925.00;;;7.50
41940;BMP180;23057;48.554;14.454;2024-03-07T07:03:46;93921.00;;;7.50
41940;BMP180;23057;48.554;14.454;2024-03-07T07:06:18;93926.00;;;7.60
41940;BMP180;23057;48.554;14.454;2024-03-07T07:08:49;93909.00;;;7.60
41940;BMP180;23057;48.554;14.454;2024-03-07T07:11:20;93927.00;;;7.70
41940;BMP180;23057;48.554;14.454;2024-03-07T07:13:51;93931.00;;;7.70
41940;BMP180;23057;48.554;14.454;2024-03-07T07:16:22;93921.00;;;7.70
41940;BMP180;23057;48.554;14.454;2024-03-07T07:18:53;93928.00;;;7.70
41940;BMP180;23057;48.554;14.454;2024-03-07T07:21:23;93935.00;;;7.80
41940;BMP180;23057;48.554;14.454;2024-03-07T07:23:54;93925.00;;;7.80
41940;BMP180;23057;48.554;14.454;2024-03-07T07:26:25;93922.00;;;7.90
41940;BMP180;23057;48.554;14.454;2024-03-07T07:28:56;93915.00;;;8.00
41940;BMP180;23057;48.554;14.454;2024-03-07T07:31:27;93912.00;;;8.10
41940;BMP180;23057;48.554;14.454;2024-03-07T07:33:58;93914.00;;;8.20
41940;BMP180;23057;48.554;14.454;2024-03-07T07:36:29;93912.00;;;8.20
41940;BMP180;23057;48.554;14.454;2024-03-07T07:39:00;93911.00;;;8.20
41940;BMP180;23057;48.554;14.454;2024-03-07T07:41:30;93909.00;;;8.20
41940;BMP180;23057;48.554;14.454;2024-03-07T07:44:02;93905.00;;;8.20
41940;BMP180;23057;48.554;14.454;2024-03-07T07:46:33;93900.00;;;8.20
41940;BMP180;23057;48.554;14.454;2024-03-07T07:49:04;93903.00;;;8.20
41940;BMP180;23057;48.554;14.454;2024-03-07T07:51:35;93911.00;;;8.20
41940;BMP180;23057;48.554;14.454;2024-03-07T07:54:06;93911.00;;;8.20
41940;BMP180;23057;48.554;14.454;2024-03-07T07:56:37;93905.00;;;8.20
41940;BMP180;23057;48.554;14.454;2024-03-07T07:59:07;93906.00;;;8.30
41940;BMP180;23057;48.554;14.454;2024-03-07T08:01:39;93919.00;;;8.30
41940;BMP180;23057;48.554;14.454;2024-03-07T08:04:10;93915.00;;;8.40
41940;BMP180;23057;48.554;14.454;2024-03-07T08:06:41;93915.00;;;8.30
41940;BMP180;23057;48.554;14.454;2024-03-07T08:09:13;93915.00;;;8.30
41940;BMP180;23057;48.554;14.454;2024-03-07T08:11:46;93915.00;;;8.30
41940;BMP180;23057;48.554;14.454;2024-03-07T08:14:20;93910.00;;;8.30
41940;BMP180;23057;48.554;14.454;2024-03-07T08:16:52;93915.00;;;8.30
41940;BMP180;23057;48.554;14.454;2024-03-07T08:19:23;93903.00;;;8.30
41940;BMP180;23057;48.554;14.454;2024-03-07T08:21:54;93914.00;;;8.30
41940;BMP180;23057;48.554;14.454;2024-03-07T08:24:25;93910.00;;;8.20
41940;BMP180;23057;48.554;14.454;2024-03-07T08:26:56;93905.00;;;8.20
41940;BMP180;23057;48.554;14.454;2024-03-07T08:29:27;93907.00;;;8.20
41940;BMP180;23057;48.554;14.454;2024-03-07T08:31:58;93905.00;;;8.20
41940;BMP180;23057;48.554;14.454;2024-03-07T08:34:28;93901.00;;;8.30
41940;BMP180;23057;48.554;14.454;2024-03-07T08:36:59;93897.00;;;8.30
41940;BMP180;23057;48.554;14.454;2024-03-07T08:39:30;93905.00;;;8.20
41940;BMP180;23057;48.554;14.454;2024-03-07T08:42:01;93903.00;;;8.20
41940;BMP180;23057;48.554;14.454;2024-03-07T08:44:32;93903.00;;;8.20
41940;BMP180;23057;48.554;14.454;2024-03-07T08:47:03;93907.00;;;8.20
41940;BMP180;23057;48.554;14.454;2024-03-07T08:49:34;93900.00;;;8.20
41940;BMP180;23057;48.554;14.454;2024-03-07T08:52:05;93903.00;;;8.20
41940;BMP180;23057;48.554;14.454;2024-03-07T08:54:37;93910.00;;;8.20
41940;BMP180;23057;48.554;14.454;2024-03-07T08:57:08;93904.00;;;8.30
41940;BMP180;23057;48.554;14.454;2024-03-07T08:59:38;93911.00;;;8.40
41940;BMP180;23057;48.554;14.454;2024-03-07T09:02:10;93908.00;;;8.40
41940;BMP180;23057;48.554;14.454;2024-03-07T09:04:44;93908.00;;;8.40
41940;BMP180;23057;48.554;14.454;2024-03-07T09:07:15;93907.00;;;8.50
41940;BMP180;23057;48.554;14.454;2024-03-07T09:09:48;93908.00;;;8.50
41940;BMP180;23057;48.554;14.454;2024-03-07T09:12:19;93903.00;;;8.60
41940;BMP180;23057;48.554;14.454;2024-03-07T09:14:51;93909.00;;;8.70
41940;BMP180;23057;48.554;14.454;2024-03-07T09:17:23;93911.00;;;8.80
41940;BMP180;23057;48.554;14.454;2024-03-07T09:19:54;93908.00;;;8.90
41940;BMP180;23057;48.554;14.454;2024-03-07T09:22:25;93905.00;;;8.90
41940;BMP180;23057;48.554;14.454;2024-03-07T09:24:57;93907.00;;;8.90
41940;BMP180;23057;48.554;14.454;2024-03-07T09:27:27;93904.00;;;8.80
41940;BMP180;23057;48.554;14.454;2024-03-07T09:29:58;93907.00;;;8.80
41940;BMP180;23057;48.554;14.454;2024-03-07T09:32:29;93908.00;;;8.80
41940;BMP180;23057;48.554;14.454;2024-03-07T09:35:03;93906.00;;;8.80
41940;BMP180;23057;48.554;14.454;2024-03-07T09:37:42;93899.00;;;8.80
41940;BMP180;23057;48.554;14.454;2024-03-07T09:40:14;93903.00;;;8.80
41940;BMP180;23057;48.554;14.454;2024-03-07T09:42:49;93911.00;;;8.80
41940;BMP180;23057;48.554;14.454;2024-03-07T09:45:28;93908.00;;;8.80
41940;BMP180;23057;48.554;14.454;2024-03-07T09:48:01;93908.00;;;8.80
41940;BMP180;23057;48.554;14.454;2024-03-07T09:50:33;93904.00;;;8.80
41940;BMP180;23057;48.554;14.454;2024-03-07T09:53:04;93906.00;;;8.70
41940;BMP180;23057;48.554;14.454;2024-03-07T09:55:35;93899.00;;;8.80
41940;BMP180;23057;48.554;14.454;2024-03-07T09:58:08;93910.00;;;8.80
41940;BMP180;23057;48.554;14.454;2024-03-07T10:00:41;93902.00;;;8.80
41940;BMP180;23057;48.554;14.454;2024-03-07T10:03:13;93916.00;;;8.80
41940;BMP180;23057;48.554;14.454;2024-03-07T10:05:45;93910.00;;;8.80
41940;BMP180;23057;48.554;14.454;2024-03-07T10:08:16;93908.00;;;8.80
41940;BMP180;23057;48.554;14.454;2024-03-07T10:10:48;93906.00;;;8.90
41940;BMP180;23057;48.554;14.454;2024-03-07T10:13:19;93907.00;;;8.90
41940;BMP180;23057;48.554;14.454;2024-03-07T10:15:52;93909.00;;;8.90
41940;BMP180;23057;48.554;14.454;2024-03-07T10:18:26;93908.00;;;8.90
41940;BMP180;23057;48.554;14.454;2024-03-07T10:20:58;93904.00;;;8.90
41940;BMP180;23057;48.554;14.454;2024-03-07T10:23:30;93898.00;;;8.90
41940;BMP180;23057;48.554;14.454;2024-03-07T10:26:05;93909.00;;;9.00
41940;BMP180;23057;48.554;14.454;2024-03-07T10:28:37;93906.00;;;9.10
41940;BMP180;23057;48.554;14.454;2024-03-07T10:31:09;93897.00;;;9.20
41940;BMP180;23057;48.554;14.454;2024-03-07T10:33:42;93902.00;;;9.30
41940;BMP180;23057;48.554;14.454;2024-03-07T10:36:14;93898.00;;;9.40
41940;BMP180;23057;48.554;14.454;2024-03-07T10:38:45;93896.00;;;9.50
41940;BMP180;23057;48.554;14.454;2024-03-07T10:41:17;93906.00;;;9.60
41940;BMP180;23057;48.554;14.454;2024-03-07T10:43:57;93912.00;;;9.70
41940;BMP180;23057;48.554;14.454;2024-03-07T10:46:32;93906.00;;;9.80
41940;BMP180;23057;48.554;14.454;2024-03-07T10:49:11;93905.00;;;9.90
41940;BMP180;23057;48.554;14.454;2024-03-07T10:51:48;93896.00;;;10.00
41940;BMP180;23057;48.554;14.454;2024-03-07T10:55:15;93898.00;;;10.10
41940;BMP180;23057;48.554;14.454;2024-03-07T10:58:07;93900.00;;;10.00
41940;BMP180;23057;48.554;14.454;2024-03-07T11:00:45;93906.00;;;10.00
41940;BMP180;23057;48.554;14.454;2024-03-07T11:03:18;93903.00;;;10.10
41940;BMP180;23057;48.554;14.454;2024-03-07T11:05:52;93899.00;;;10.00
41940;BMP180;23057;48.554;14.454;2024-03-07T11:08:24;93899.00;;;10.00
41940;BMP180;23057;48.554;14.454;2024-03-07T11:10:56;93895.00;;;10.10
41940;BMP180;23057;48.554;14.454;2024-03-07T11:13:30;93896.00;;;10.10
41940;BMP180;23057;48.554;14.454;2024-03-07T11:16:03;93894.00;;;10.10
41940;BMP180;23057;48.554;14.454;2024-03-07T11:18:36;93893.00;;;10.30
41940;BMP180;23057;48.554;14.454;2024-03-07T11:21:40;93891.00;;;10.50
41940;BMP180;23057;48.554;14.454;2024-03-07T11:24:30;93887.00;;;10.70
41940;BMP180;23057;48.554;14.454;2024-03-07T11:27:06;93883.00;;;10.80
41940;BMP180;23057;48.554;14.454;2024-03-07T11:29:48;93880.00;;;11.00
41940;BMP180;23057;48.554;14.454;2024-03-07T11:32:29;93889.00;;;11.20
41940;BMP180;23057;48.554;14.454;2024-03-07T11:35:14;93880.00;;;11.30
41940;BMP180;23057;48.554;14.454;2024-03-07T11:37:45;93872.00;;;11.20
41940;BMP180;23057;48.554;14.454;2024-03-07T11:42:56;93866.00;;;11.20
41940;BMP180;23057;48.554;14.454;2024-03-07T11:45:31;93865.00;;;11.30
41940;BMP180;23057;48.554;14.454;2024-03-07T11:48:16;93867.00;;;11.20
41940;BMP180;23057;48.554;14.454;2024-03-07T11:50:50;93865.00;;;11.40
41940;BMP180;23057;48.554;14.454;2024-03-07T11:53:21;93862.00;;;11.50
41940;BMP180;23057;48.554;14.454;2024-03-07T11:55:52;93862.00;;;11.50
41940;BMP180;23057;48.554;14.454;2024-03-07T11:58:24;93868.00;;;11.50
41940;BMP180;23057;48.554;14.454;2024-03-07T12:00:56;93859.00;;;11.40
41940;BMP180;23057;48.554;14.454;2024-03-07T12:03:29;93859.00;;;11.30
41940;BMP180;23057;48.554;14.454;2024-03-07T12:06:02;93869.00;;;11.20
41940;BMP180;23057;48.554;14.454;2024-03-07T12:08:33;93864.00;;;11.10
41940;BMP180;23057;48.554;14.454;2024-03-07T12:11:04;93869.00;;;11.00
41940;BMP180;23057;48.554;14.454;2024-03-07T12:13:35;93859.00;;;11.00
41940;BMP180;23057;48.554;14.454;2024-03-07T12:16:06;93856.00;;;10.90
41940;BMP180;23057;48.554;14.454;2024-03-07T12:18:39;93858.00;;;10.90
41940;BMP180;23057;48.554;14.454;2024-03-07T12:21:10;93852.00;;;10.90
41940;BMP180;23057;48.554;14.454;2024-03-07T12:23:42;93845.00;;;11.00
41940;BMP180;23057;48.554;14.454;2024-03-07T12:26:20;93833.00;;;11.00
41940;BMP180;23057;48.554;14.454;2024-03-07T12:28:51;93847.00;;;11.00
41940;BMP180;23057;48.554;14.454;2024-03-07T12:31:23;93839.00;;;11.00
41940;BMP180;23057;48.554;14.454;2024-03-07T12:33:55;93843.00;;;11.00
41940;BMP180;23057;48.554;14.454;2024-03-07T12:36:28;93836.00;;;11.00
41940;BMP180;23057;48.554;14.454;2024-03-07T12:39:05;93837.00;;;11.00
41940;BMP180;23057;48.554;14.454;2024-03-07T12:41:56;93834.00;;;10.90
41940;BMP180;23057;48.554;14.454;2024-03-07T12:44:27;93840.00;;;10.90
41940;BMP180;23057;48.554;14.454;2024-03-07T12:46:58;93833.00;;;11.00
41940;BMP180;23057;48.554;14.454;2024-03-07T12:49:29;93841.00;;;11.10
41940;BMP180;23057;48.554;14.454;2024-03-07T12:52:00;93831.00;;;11.00
41940;BMP180;23057;48.554;14.454;2024-03-07T12:54:32;93838.00;;;10.90
41940;BMP180;23057;48.554;14.454;2024-03-07T12:57:03;93835.00;;;10.90
41940;BMP180;23057;48.554;14.454;2024-03-07T12:59:38;93842.00;;;10.80
41940;BMP180;23057;48.554;14.454;2024-03-07T13:02:12;93842.00;;;10.80
41940;BMP180;23057;48.554;14.454;2024-03-07T13:04:43;93842.00;;;10.80
41940;BMP180;23057;48.554;14.454;2024-03-07T13:07:15;93844.00;;;10.70
41940;BMP180;23057;48.554;14.454;2024-03-07T13:09:46;93843.00;;;10.70
41940;BMP180;23057;48.554;14.454;2024-03-07T13:12:18;93853.00;;;10.60
41940;BMP180;23057;48.554;14.454;2024-03-07T13:14:49;93849.00;;;10.50
41940;BMP180;23057;48.554;14.454;2024-03-07T13:17:20;93851.00;;;10.40
41940;BMP180;23057;48.554;14.454;2024-03-07T13:19:51;93855.00;;;10.20
41940;BMP180;23057;48.554;14.454;2024-03-07T13:22:30;93848.00;;;10.10
41940;BMP180;23057;48.554;14.454;2024-03-07T13:25:02;93851.00;;;10.10
41940;BMP180;23057;48.554;14.454;2024-03-07T13:27:38;93854.00;;;10.00
41940;BMP180;23057;48.554;14.454;2024-03-07T13:30:12;93848.00;;;10.00
41940;BMP180;23057;48.554;14.454;2024-03-07T13:32:57;93847.00;;;10.00
41940;BMP180;23057;48.554;14.454;2024-03-07T13:35:30;93847.00;;;10.00
41940;BMP180;23057;48.554;14.454;2024-03-07T13:38:00;93854.00;;;10.00
41940;BMP180;23057;48.554;14.454;2024-03-07T13:40:31;93859.00;;;10.00
41940;BMP180;23057;48.554;14.454;2024-03-07T13:43:06;93860.00;;;9.90
41940;BMP180;23057;48.554;14.454;2024-03-07T13:45:38;93859.00;;;9.80
41940;BMP180;23057;48.554;14.454;2024-03-07T13:48:14;93868.00;;;9.70
41940;BMP180;23057;48.554;14.454;2024-03-07T13:50:48;93871.00;;;9.60
41940;BMP180;23057;48.554;14.454;2024-03-07T13:53:20;93865.00;;;9.60
41940;BMP180;23057;48.554;14.454;2024-03-07T14:08:40;93865.00;;;9.40
41940;BMP180;23057;48.554;14.454;2024-03-07T14:12:04;93865.00;;;9.40
41940;BMP180;23057;48.554;14.454;2024-03-07T14:25:37;93861.00;;;9.50
41940;BMP180;23057;48.554;14.454;2024-03-07T14:29:12;93856.00;;;9.50
41940;BMP180;23057;48.554;14.454;2024-03-07T14:32:05;93853.00;;;9.50
41940;BMP180;23057;48.554;14.454;2024-03-07T14:35:00;93864.00;;;9.60
41940;BMP180;23057;48.554;14.454;2024-03-07T14:37:51;93858.00;;;9.70
41940;BMP180;23057;48.554;14.454;2024-03-07T14:40:25;93851.00;;;9.80
41940;BMP180;23057;48.554;14.454;2024-03-07T14:43:01;93858.00;;;9.90
41940;BMP180;23057;48.554;14.454;2024-03-07T14:45:39;93856.00;;;10.00
41940;BMP180;23057;48.554;14.454;2024-03-07T14:48:13;93857.00;;;10.10
41940;BMP180;23057;48.554;14.454;2024-03-07T14:50:47;93847.00;;;10.20
41940;BMP180;23057;48.554;14.454;2024-03-07T14:53:19;93846.00;;;10.30
41940;BMP180;23057;48.554;14.454;2024-03-07T14:55:52;93844.00;;;10.40
41940;BMP180;23057;48.554;14.454;2024-03-07T14:58:24;93839.00;;;10.40
41940;BMP180;23057;48.554;14.454;2024-03-07T15:00:56;93840.00;;;10.40
41940;BMP180;23057;48.554;14.454;2024-03-07T15:03:28;93842.00;;;10.30
41940;BMP180;23057;48.554;14.454;2024-03-07T15:05:59;93840.00;;;10.30